Time;durP1;ratioP1;P1;durP2;ratioP2;P2;SDS_P1;SDS_P2;PMS_P1;PMS_P2;Temp;Humidity;BMP_temperature;BMP_pressure;BME280_temperature;BME280_humidity;BME280_pressure;Samples;Min_cycle;Max_cycle;Signal;HPM_P1;HPM_P2
2023/01/17 00:01:28;;;;;;;1.93;1.70;;;4.30;99.90;;;;;;5051675;28;20482;-66
2023/01/17 00:12:14;;;;;;;2.90;1.80;;;4.30;99.90;;;;;;5050282;28;20470;-67
2023/01/17 00:14:42;;;;;;;2.13;1.93;;;4.30;99.90;;;;;;5033292;28;20965;-67
2023/01/17 00:17:10;;;;;;;2.10;1.93;;;4.30;99.90;;;;;;5032049;28;20486;-67
2023/01/17 01:35:30;;;;;;;4.47;4.07;;;4.50;99.90;;;;;;5034039;28;20481;-67
2023/01/17 01:37:58;;;;;;;4.47;4.13;;;4.50;99.90;;;;;;5027561;28;20220;-66
2023/01/17 01:40:26;;;;;;;4.97;4.37;;;4.50;99.90;;;;;;5033957;28;20468;-67
2023/01/17 01:42:57;;;;;;;5.13;4.63;;;4.50;99.90;;;;;;5034242;28;20462;-67
2023/01/17 01:45:27;;;;;;;5.70;4.93;;;4.40;99.90;;;;;;5033794;28;20470;-67
2023/01/17 01:48:01;;;;;;;6.03;5.43;;;4.40;99.90;;;;;;5034460;28;20865;-67
2023/01/17 01:50:30;;;;;;;6.50;5.90;;;4.50;99.90;;;;;;5033943;28;20458;-67
2023/01/17 01:53:01;;;;;;;6.63;5.93;;;4.40;99.90;;;;;;5034355;28;20958;-67
2023/01/17 01:55:32;;;;;;;7.40;6.30;;;4.60;99.90;;;;;;5033719;28;20469;-67
2023/01/17 01:58:09;;;;;;;7.50;6.80;;;4.50;99.90;;;;;;5033789;28;20489;-67
2023/01/17 02:00:40;;;;;;;7.77;6.70;;;4.50;99.90;;;;;;5037182;28;20463;-67
2023/01/17 02:03:13;;;;;;;6.67;6.07;;;4.50;99.90;;;;;;5047297;28;20854;-67
2023/01/17 02:05:42;;;;;;;7.33;6.67;;;4.60;99.90;;;;;;5053406;28;20473;-67
2023/01/17 02:08:14;;;;;;;7.13;6.53;;;4.50;99.90;;;;;;5050079;28;20481;-67
2023/01/17 02:10:43;;;;;;;8.70;7.80;;;4.50;99.90;;;;;;5053381;28;20460;-67
2023/01/17 02:13:15;;;;;;;7.67;6.87;;;4.60;99.90;;;;;;5053896;28;21015;-67
2023/01/17 02:15:55;;;;;;;7.97;7.17;;;4.50;99.90;;;;;;5052730;28;20523;-67
2023/01/17 02:18:33;;;;;;;7.70;7.00;;;4.60;99.90;;;;;;5053497;28;20844;-67
2023/01/17 02:21:23;;;;;;;8.73;7.83;;;4.60;99.90;;;;;;5053366;28;20490;-67
2023/01/17 02:24:22;;;;;;;8.80;8.00;;;4.70;99.90;;;;;;5053296;28;20463;-67
2023/01/17 02:27:02;;;;;;;9.00;8.10;;;4.60;99.90;;;;;;5053259;28;20458;-67
2023/01/17 02:30:18;;;;;;;10.50;8.23;;;4.60;99.90;;;;;;5053211;28;20474;-66
2023/01/17 02:33:19;;;;;;;8.97;7.80;;;4.50;99.90;;;;;;5038658;28;20482;-67
2023/01/17 02:36:04;;;;;;;8.93;8.03;;;4.50;99.90;;;;;;5052698;28;20465;-66
2023/01/17 02:38:39;;;;;;;9.07;8.20;;;4.50;99.90;;;;;;5047748;28;20522;-66
2023/01/17 02:41:13;;;;;;;9.63;8.60;;;4.50;99.90;;;;;;5053336;28;20857;-66
2023/01/17 02:43:41;;;;;;;9.30;8.40;;;4.60;99.90;;;;;;5052790;28;20466;-67
2023/01/17 02:46:09;;;;;;;9.27;8.37;;;4.70;99.90;;;;;;5053205;28;20473;-67
2023/01/17 02:48:39;;;;;;;9.67;8.60;;;4.60;99.90;;;;;;5052823;28;20466;-67
2023/01/17 02:51:37;;;;;;;10.53;8.57;;;4.70;99.90;;;;;;5052479;28;20469;-67
2023/01/17 02:54:26;;;;;;;10.10;9.00;;;4.80;99.90;;;;;;5052889;28;20474;-67
2023/01/17 02:57:06;;;;;;;10.40;9.30;;;4.70;99.90;;;;;;5052980;28;20482;-66
2023/01/17 02:59:40;;;;;;;11.43;10.23;;;4.70;99.90;;;;;;5046572;28;20468;-66
2023/01/17 03:02:16;;;;;;;11.13;10.00;;;4.70;99.90;;;;;;5058619;28;21033;-67
2023/01/17 03:04:51;;;;;;;11.67;10.23;;;4.70;99.90;;;;;;5052533;28;21669;-67
2023/01/17 03:07:24;;;;;;;10.73;9.63;;;4.70;99.90;;;;;;5046307;28;20798;-67
2023/01/17 03:09:58;;;;;;;10.77;9.50;;;4.80;99.90;;;;;;5052484;28;20471;-67
2023/01/17 03:12:27;;;;;;;11.37;10.10;;;4.80;99.90;;;;;;5052733;28;21053;-67
2023/01/17 03:14:56;;;;;;;12.27;10.97;;;4.80;99.90;;;;;;5052885;28;20478;-67
2023/01/17 03:17:28;;;;;;;13.23;10.77;;;4.80;99.90;;;;;;5052675;28;20478;-67
2023/01/17 03:19:58;;;;;;;10.67;9.37;;;4.70;99.90;;;;;;5052580;28;20484;-67
2023/01/17 03:22:26;;;;;;;13.20;10.20;;;4.80;99.90;;;;;;5052315;28;20477;-67
2023/01/17 03:24:54;;;;;;;11.37;10.20;;;4.70;99.90;;;;;;5052444;28;20477;-67
2023/01/17 03:27:22;;;;;;;10.80;9.70;;;4.80;99.90;;;;;;5050662;28;20469;-67
2023/01/17 03:29:50;;;;;;;10.27;9.17;;;4.70;99.90;;;;;;5048978;28;20462;-67
2023/01/17 03:32:18;;;;;;;8.43;7.57;;;4.70;99.90;;;;;;5055144;28;20499;-67
2023/01/17 03:34:46;;;;;;;7.30;6.60;;;4.60;99.90;;;;;;5055405;28;20462;-66
2023/01/17 03:37:15;;;;;;;6.97;6.03;;;4.60;99.90;;;;;;5045685;28;20474;-66
2023/01/17 03:39:43;;;;;;;4.93;4.43;;;4.60;99.90;;;;;;5052300;28;20965;-66
2023/01/17 03:42:11;;;;;;;4.77;4.13;;;4.50;99.90;;;;;;5052608;28;20476;-67
2023/01/17 03:44:39;;;;;;;3.37;3.07;;;4.50;99.90;;;;;;5052453;28;20465;-67
2023/01/17 03:47:10;;;;;;;3.43;3.13;;;4.40;99.90;;;;;;5052578;28;20957;-67
2023/01/17 03:49:39;;;;;;;3.33;3.03;;;4.40;99.90;;;;;;5052394;28;20469;-67
2023/01/17 03:52:07;;;;;;;3.10;2.80;;;4.40;99.90;;;;;;5052589;28;20552;-67
2023/01/17 03:54:37;;;;;;;4.17;3.13;;;4.30;99.90;;;;;;5052044;28;20470;-67
2023/01/17 03:57:05;;;;;;;2.80;2.40;;;4.30;99.90;;;;;;5052447;28;20844;-67
2023/01/17 03:59:33;;;;;;;3.40;3.10;;;4.30;99.90;;;;;;5055994;28;20469;-67
2023/01/17 04:02:01;;;;;;;3.80;3.47;;;4.30;99.90;;;;;;5049709;28;20537;-66
2023/01/17 04:04:29;;;;;;;4.63;3.57;;;4.30;99.90;;;;;;5047561;28;20954;-66
2023/01/17 04:06:57;;;;;;;5.13;4.07;;;4.30;99.90;;;;;;5048820;28;20468;-66
2023/01/17 04:09:25;;;;;;;5.40;4.00;;;4.30;99.90;;;;;;5055742;28;20474;-66
2023/01/17 04:11:55;;;;;;;4.37;3.80;;;4.40;99.90;;;;;;5055916;28;20458;-67
2023/01/17 04:14:23;;;;;;;4.30;3.90;;;4.40;99.90;;;;;;5045674;28;20463;-67
2023/01/17 04:16:51;;;;;;;6.00;4.60;;;4.30;99.90;;;;;;5046253;28;20466;-66
2023/01/17 04:19:19;;;;;;;6.23;4.87;;;4.30;99.90;;;;;;5045310;28;20483;-66
2023/01/17 04:21:48;;;;;;;6.30;5.33;;;4.40;99.90;;;;;;5044921;28;20473;-66
2023/01/17 04:24:16;;;;;;;6.20;5.30;;;4.30;99.90;;;;;;5044719;28;20477;-66
2023/01/17 04:26:45;;;;;;;6.03;5.30;;;4.30;99.90;;;;;;5044700;28;20525;-66
2023/01/17 04:29:14;;;;;;;6.17;5.57;;;4.40;99.90;;;;;;5049795;28;20469;-66
2023/01/17 04:31:42;;;;;;;6.30;5.40;;;4.30;99.90;;;;;;5038780;28;21039;-66
2023/01/17 04:34:10;;;;;;;7.40;6.17;;;4.40;99.90;;;;;;5060744;28;20461;-66
2023/01/17 04:36:38;;;;;;;7.67;5.87;;;4.40;99.90;;;;;;5049643;28;20470;-66
2023/01/17 04:39:07;;;;;;;6.87;5.37;;;4.50;99.90;;;;;;5055093;28;20492;-66
2023/01/17 04:41:35;;;;;;;7.63;6.43;;;4.50;99.90;;;;;;5055380;28;20477;-66
2023/01/17 04:44:04;;;;;;;7.10;6.00;;;4.40;99.90;;;;;;5051262;28;20466;-66
2023/01/17 04:46:33;;;;;;;8.77;6.10;;;4.40;99.90;;;;;;5047184;28;20466;-66
2023/01/17 04:49:01;;;;;;;6.90;6.00;;;4.40;99.90;;;;;;5043922;28;20463;-66
2023/01/17 04:51:29;;;;;;;7.37;6.03;;;4.40;99.90;;;;;;5044705;28;20473;-66
2023/01/17 04:53:57;;;;;;;6.10;5.47;;;4.40;99.90;;;;;;5038137;28;20471;-66
2023/01/17 04:56:25;;;;;;;7.43;5.50;;;4.40;99.90;;;;;;5035268;28;20470;-66
2023/01/17 04:58:56;;;;;;;5.70;5.03;;;4.30;99.90;;;;;;5053928;28;20496;-66
2023/01/17 05:01:24;;;;;;;5.77;4.40;;;4.30;99.90;;;;;;5054636;28;20486;-66
2023/01/17 05:03:54;;;;;;;5.70;4.77;;;4.30;99.90;;;;;;5061752;28;20481;-66
2023/01/17 05:06:22;;;;;;;4.53;4.07;;;4.30;99.90;;;;;;5051563;28;20517;-66
2023/01/17 05:08:50;;;;;;;4.23;3.43;;;4.30;99.90;;;;;;5051986;28;20800;-66
2023/01/17 05:11:18;;;;;;;2.97;2.07;;;4.20;99.90;;;;;;5054999;28;20469;-66
2023/01/17 05:13:48;;;;;;;2.07;1.70;;;4.20;99.90;;;;;;5054544;28;20523;-66
2023/01/17 05:16:19;;;;;;;1.00;0.90;;;4.10;99.90;;;;;;5054993;28;20481;-66
2023/01/17 05:18:47;;;;;;;1.50;0.90;;;4.10;99.90;;;;;;5054692;28;20496;-66
2023/01/17 05:21:16;;;;;;;0.97;0.50;;;4.10;99.90;;;;;;5054431;28;20478;-66
2023/01/17 05:23:44;;;;;;;1.70;0.50;;;4.00;99.90;;;;;;5054635;28;20480;-66
2023/01/17 05:26:12;;;;;;;2.80;0.30;;;4.00;99.90;;;;;;5054524;28;20852;-66
2023/01/17 05:28:40;;;;;;;1.50;0.30;;;3.90;99.90;;;;;;5048577;28;20477;-66
2023/01/17 05:31:08;;;;;;;0.60;0.20;;;3.90;99.90;;;;;;5042906;28;20475;-66
2023/01/17 05:33:36;;;;;;;0.83;0.40;;;3.90;99.90;;;;;;5055065;28;20498;-66
2023/01/17 05:36:05;;;;;;;1.57;0.30;;;3.80;99.90;;;;;;5052950;28;20476;-66
2023/01/17 05:38:34;;;;;;;2.80;0.60;;;3.80;99.90;;;;;;5049259;28;20831;-66
2023/01/17 05:41:03;;;;;;;1.93;0.60;;;3.80;99.90;;;;;;5053404;28;20472;-66
2023/01/17 05:43:32;;;;;;;3.40;0.60;;;3.80;99.90;;;;;;5053464;28;20473;-66
2023/01/17 05:46:00;;;;;;;4.60;0.87;;;3.70;99.90;;;;;;5050408;28;20470;-66
2023/01/17 05:48:28;;;;;;;4.13;0.63;;;3.70;99.90;;;;;;5051317;28;20833;-66
2023/01/17 05:50:56;;;;;;;2.90;0.63;;;3.70;99.90;;;;;;5054244;28;20470;-66
2023/01/17 05:53:24;;;;;;;5.43;0.87;;;3.70;99.90;;;;;;5054267;28;20466;-66
2023/01/17 05:55:53;;;;;;;3.10;0.40;;;3.70;99.90;;;;;;5053946;28;20453;-66
2023/01/17 05:58:22;;;;;;;2.57;0.57;;;3.70;99.90;;;;;;5053946;28;21027;-66
2023/01/17 06:00:50;;;;;;;2.73;0.50;;;3.60;99.90;;;;;;5053511;28;20530;-66
2023/01/17 06:03:18;;;;;;;3.67;0.60;;;3.60;99.90;;;;;;5060246;28;20493;-66
2023/01/17 06:05:46;;;;;;;1.93;0.40;;;3.50;99.90;;;;;;5050635;28;20455;-66
2023/01/17 06:08:14;;;;;;;2.07;0.43;;;3.50;99.90;;;;;;5041691;28;20480;-66
2023/01/17 06:10:43;;;;;;;3.57;0.40;;;3.40;99.90;;;;;;5037742;28;20999;-66
2023/01/17 06:13:19;;;;;;;3.67;0.50;;;3.40;99.90;;;;;;5045497;28;20477;-66
2023/01/17 06:15:48;;;;;;;3.23;0.60;;;3.40;99.90;;;;;;5052590;28;20465;-66
2023/01/17 06:18:17;;;;;;;3.33;0.60;;;3.40;99.90;;;;;;5053398;28;20512;-66
2023/01/17 06:20:45;;;;;;;3.07;0.60;;;3.40;99.90;;;;;;5037628;28;20481;-66
2023/01/17 06:23:14;;;;;;;3.80;0.63;;;3.40;99.90;;;;;;5053448;28;20468;-66
2023/01/17 06:25:44;;;;;;;4.93;0.80;;;3.40;99.90;;;;;;5036751;28;20988;-66
2023/01/17 06:28:15;;;;;;;3.87;0.97;;;3.40;99.90;;;;;;5048717;28;20491;-66
2023/01/17 06:30:44;;;;;;;4.87;1.47;;;3.40;99.90;;;;;;5045158;28;21071;-66
2023/01/17 06:33:13;;;;;;;6.97;0.80;;;3.40;99.90;;;;;;5044425;28;20473;-66
2023/01/17 06:35:48;;;;;;;3.83;0.80;;;3.50;99.90;;;;;;5043152;28;20521;-66
2023/01/17 06:38:17;;;;;;;3.60;0.70;;;3.50;99.90;;;;;;5045859;28;20477;-66
2023/01/17 06:40:45;;;;;;;5.40;0.80;;;3.50;99.90;;;;;;5048584;28;20485;-66
2023/01/17 06:43:14;;;;;;;6.10;1.10;;;3.50;99.90;;;;;;5052934;28;20470;-66
2023/01/17 06:45:42;;;;;;;5.07;0.90;;;3.60;99.90;;;;;;5053095;28;20469;-66
2023/01/17 06:48:10;;;;;;;2.80;0.70;;;3.60;99.90;;;;;;5049534;28;20823;-66
2023/01/17 06:50:39;;;;;;;4.63;0.70;;;3.60;99.90;;;;;;5032881;28;20463;-66
2023/01/17 06:53:07;;;;;;;5.97;0.73;;;3.60;99.90;;;;;;5033290;28;20520;-66
2023/01/17 06:55:38;;;;;;;5.23;1.07;;;3.60;99.90;;;;;;5046784;28;20477;-66
2023/01/17 06:58:08;;;;;;;2.50;0.70;;;3.70;99.90;;;;;;5058017;28;20473;-66
2023/01/17 07:00:38;;;;;;;6.00;1.00;;;3.60;99.90;;;;;;5048799;28;21044;-66
2023/01/17 07:03:14;;;;;;;4.93;1.20;;;3.70;99.90;;;;;;5052935;28;20819;-66
2023/01/17 07:05:42;;;;;;;3.87;0.97;;;3.70;99.90;;;;;;5048693;28;20568;-66
2023/01/17 07:08:10;;;;;;;3.87;0.80;;;3.60;99.90;;;;;;5052959;28;20509;-66
2023/01/17 07:10:38;;;;;;;6.13;1.27;;;3.70;99.90;;;;;;5049095;28;20482;-66
2023/01/17 07:13:06;;;;;;;5.77;0.90;;;3.60;99.90;;;;;;5052304;28;20854;-66
2023/01/17 07:15:34;;;;;;;3.47;1.00;;;3.60;99.90;;;;;;5052395;28;20462;-66
2023/01/17 07:18:06;;;;;;;5.97;0.93;;;3.60;99.90;;;;;;5052516;28;20466;-66
2023/01/17 07:20:34;;;;;;;4.23;0.73;;;3.60;99.90;;;;;;5052239;28;20906;-66
2023/01/17 07:23:02;;;;;;;7.03;1.27;;;3.60;99.90;;;;;;5052508;28;20697;-66
2023/01/17 07:25:30;;;;;;;4.10;0.90;;;3.60;99.90;;;;;;5052266;28;20471;-66
2023/01/17 07:27:58;;;;;;;5.50;1.13;;;3.60;99.90;;;;;;5056457;28;20818;-66
2023/01/17 07:30:27;;;;;;;7.03;0.90;;;3.60;99.90;;;;;;5051848;28;20857;-66
2023/01/17 07:32:55;;;;;;;6.73;1.00;;;3.60;99.90;;;;;;5054225;28;20478;-66
2023/01/17 07:35:25;;;;;;;7.47;1.43;;;3.60;99.90;;;;;;5047125;28;20824;-66
2023/01/17 07:37:54;;;;;;;8.60;1.03;;;3.60;99.90;;;;;;5046269;28;20822;-66
2023/01/17 07:40:23;;;;;;;4.77;1.50;;;3.60;99.90;;;;;;5049457;28;20488;-66
2023/01/17 07:42:51;;;;;;;6.80;1.60;;;3.70;99.90;;;;;;5042948;28;20834;-66
2023/01/17 07:45:20;;;;;;;6.50;1.00;;;3.70;99.90;;;;;;5048253;28;20503;-66
2023/01/17 07:47:48;;;;;;;5.83;0.97;;;3.60;99.90;;;;;;5048173;28;20485;-66
2023/01/17 07:50:17;;;;;;;2.70;0.93;;;3.60;99.90;;;;;;5049369;28;20972;-66
2023/01/17 07:52:50;;;;;;;4.70;1.00;;;3.60;99.90;;;;;;5046763;28;20816;-66
2023/01/17 07:55:18;;;;;;;4.00;1.10;;;3.50;99.90;;;;;;5048355;28;21157;-66
2023/01/17 07:57:49;;;;;;;4.37;0.80;;;3.50;99.90;;;;;;5050260;28;20465;-66
2023/01/17 08:00:18;;;;;;;4.30;0.90;;;3.50;99.90;;;;;;5049343;28;20857;-66
2023/01/17 08:02:46;;;;;;;5.00;1.17;;;3.50;99.90;;;;;;5045183;28;20472;-66
2023/01/17 08:05:14;;;;;;;3.73;0.83;;;3.50;99.90;;;;;;5048769;28;20479;-66
2023/01/17 08:07:42;;;;;;;5.03;1.47;;;3.50;99.90;;;;;;5047025;28;20471;-66
2023/01/17 08:10:16;;;;;;;4.80;1.03;;;3.50;99.90;;;;;;5050506;28;20845;-66
2023/01/17 08:12:45;;;;;;;4.97;1.53;;;3.50;99.90;;;;;;5046017;28;20486;-66
2023/01/17 08:15:14;;;;;;;5.10;1.00;;;3.50;99.90;;;;;;5047667;28;20469;-66
2023/01/17 08:17:46;;;;;;;4.47;1.13;;;3.50;99.90;;;;;;5053911;28;20473;-66
2023/01/17 08:20:14;;;;;;;7.83;1.10;;;3.50;99.90;;;;;;5054459;28;20492;-67
2023/01/17 08:22:42;;;;;;;3.73;0.87;;;3.50;99.90;;;;;;5054431;28;20475;-66
2023/01/17 08:25:12;;;;;;;7.60;1.10;;;3.50;99.90;;;;;;5054667;28;20474;-66
2023/01/17 08:27:40;;;;;;;4.30;0.77;;;3.50;99.90;;;;;;5053051;28;20492;-66
2023/01/17 08:30:09;;;;;;;3.37;1.20;;;3.50;99.90;;;;;;5052707;28;20752;-66
2023/01/17 08:32:39;;;;;;;3.53;1.40;;;3.50;99.90;;;;;;5051197;28;20610;-66
2023/01/17 08:35:08;;;;;;;5.37;1.07;;;3.50;99.90;;;;;;5046414;28;20470;-66
2023/01/17 08:37:37;;;;;;;6.53;1.10;;;3.40;99.90;;;;;;5047075;28;20475;-66
2023/01/17 08:40:07;;;;;;;5.93;1.80;;;3.40;99.90;;;;;;5049646;28;20490;-66
2023/01/17 08:42:38;;;;;;;6.37;1.37;;;3.40;99.90;;;;;;5045082;28;20466;-66
2023/01/17 08:45:08;;;;;;;4.90;1.10;;;3.40;99.90;;;;;;5048665;28;20481;-66
2023/01/17 08:47:38;;;;;;;5.13;0.90;;;3.50;99.90;;;;;;5046527;28;20566;-66
2023/01/17 08:50:06;;;;;;;6.10;1.30;;;3.50;99.90;;;;;;5048954;28;20466;-66
2023/01/17 08:52:34;;;;;;;3.37;0.77;;;3.50;99.90;;;;;;5046195;28;20476;-66
2023/01/17 08:55:04;;;;;;;6.10;1.50;;;3.50;99.90;;;;;;5046378;28;20479;-66
2023/01/17 08:57:32;;;;;;;6.70;1.30;;;3.50;99.90;;;;;;5047654;28;20535;-66
2023/01/17 09:00:02;;;;;;;7.23;1.30;;;3.60;99.90;;;;;;5046841;28;20476;-66
2023/01/17 09:02:30;;;;;;;8.40;1.00;;;3.50;99.90;;;;;;5045270;28;20489;-66
2023/01/17 09:04:59;;;;;;;4.30;1.33;;;3.60;99.90;;;;;;5048696;28;21327;-66
2023/01/17 09:07:27;;;;;;;9.50;2.97;;;3.60;99.90;;;;;;5047918;28;20969;-66
2023/01/17 09:09:55;;;;;;;11.17;7.80;;;3.50;99.90;;;;;;5045045;28;20482;-66
2023/01/17 09:12:23;;;;;;;7.17;2.03;;;3.60;99.90;;;;;;5042498;28;20474;-66
2023/01/17 09:14:51;;;;;;;8.07;2.10;;;3.50;99.90;;;;;;5046235;28;20481;-66
2023/01/17 09:17:21;;;;;;;5.97;2.80;;;3.50;99.90;;;;;;5045998;28;20527;-66
2023/01/17 09:19:49;;;;;;;9.20;3.20;;;3.50;99.90;;;;;;5045665;28;20953;-66
2023/01/17 09:22:17;;;;;;;8.63;2.67;;;3.50;99.90;;;;;;5042941;28;21004;-66
2023/01/17 09:24:45;;;;;;;5.07;1.70;;;3.50;99.90;;;;;;5048092;28;20482;-66
2023/01/17 09:27:13;;;;;;;11.27;3.45;;;3.40;99.90;;;;;;5045546;28;20431;-60
2023/01/17 09:29:41;;;;;;;11.50;2.40;;;3.50;99.90;;;;;;5045962;28;20238;-61
2023/01/17 09:32:09;;;;;;;8.50;2.30;;;3.40;99.90;;;;;;5045899;28;21302;-62
2023/01/17 09:34:39;;;;;;;6.63;2.23;;;3.50;99.90;;;;;;5047981;28;20488;-63
2023/01/17 09:37:07;;;;;;;9.70;2.37;;;3.70;99.90;;;;;;5048990;28;20466;-62
2023/01/17 09:39:35;;;;;;;9.23;3.63;;;3.70;99.90;;;;;;5044709;28;21045;-63
2023/01/17 09:42:17;;;;;;;9.73;2.70;;;3.80;99.90;;;;;;5046745;28;20492;-62
2023/01/17 09:44:50;;;;;;;9.67;2.40;;;3.80;99.90;;;;;;5047341;28;20469;-62
2023/01/17 09:47:24;;;;;;;7.87;3.07;;;3.90;99.90;;;;;;5046438;28;20490;-62
2023/01/17 09:49:59;;;;;;;5.80;1.97;;;3.90;99.90;;;;;;5052168;28;20473;-62
2023/01/17 09:52:31;;;;;;;4.33;1.40;;;4.00;99.90;;;;;;5051108;28;20477;-62
2023/01/17 09:55:00;;;;;;;4.23;1.17;;;4.10;99.90;;;;;;5046385;28;20474;-62
2023/01/17 09:57:45;;;;;;;3.70;1.00;;;4.10;99.90;;;;;;5043824;28;20478;-62
2023/01/17 10:00:31;;;;;;;5.80;2.87;;;4.10;99.90;;;;;;5045654;28;20465;-61
2023/01/17 10:03:25;;;;;;;5.90;2.80;;;4.10;99.90;;;;;;5041492;28;21472;-61
2023/01/17 10:06:09;;;;;;;6.50;3.03;;;4.20;99.90;;;;;;5043928;28;20468;-61
2023/01/17 10:08:54;;;;;;;5.20;1.57;;;4.30;99.90;;;;;;5045300;28;20524;-62
2023/01/17 10:11:45;;;;;;;4.10;1.50;;;4.20;99.90;;;;;;5050760;28;20465;-63
2023/01/17 10:14:45;;;;;;;5.27;1.37;;;4.30;99.90;;;;;;5051515;28;20478;-61
2023/01/17 10:17:28;;;;;;;5.73;1.50;;;4.40;99.90;;;;;;5053108;28;20523;-61
2023/01/17 10:20:12;;;;;;;3.33;1.37;;;4.50;99.90;;;;;;5042014;28;20532;-61
2023/01/17 10:22:59;;;;;;;3.93;0.90;;;4.50;99.90;;;;;;5040488;28;20532;-61
2023/01/17 10:25:46;;;;;;;4.33;1.23;;;4.60;99.90;;;;;;5045106;28;20489;-63
2023/01/17 10:28:16;;;;;;;3.43;1.53;;;4.70;99.90;;;;;;5044712;28;20478;-63
2023/01/17 10:30:48;;;;;;;5.17;1.30;;;4.70;99.90;;;;;;5040921;28;20489;-63
2023/01/17 10:33:20;;;;;;;6.43;1.43;;;4.80;99.90;;;;;;5046306;28;20484;-62
2023/01/17 10:35:55;;;;;;;4.60;1.13;;;4.90;99.90;;;;;;5052740;28;20484;-63
2023/01/17 10:38:30;;;;;;;3.90;1.30;;;4.90;99.90;;;;;;5043740;28;21061;-62
2023/01/17 10:41:02;;;;;;;3.23;1.03;;;5.10;99.90;;;;;;5045544;28;20837;-63
2023/01/17 10:43:39;;;;;;;4.33;1.40;;;5.10;99.90;;;;;;5043524;28;20996;-63
2023/01/17 10:46:16;;;;;;;4.53;0.90;;;5.20;99.90;;;;;;5044579;28;20470;-63
2023/01/17 10:48:48;;;;;;;3.03;0.80;;;5.40;99.90;;;;;;5050346;28;20472;-62
2023/01/17 10:51:33;;;;;;;4.13;0.87;;;5.40;99.90;;;;;;5051430;28;20469;-62
2023/01/17 10:54:17;;;;;;;3.80;1.00;;;5.40;99.90;;;;;;5053142;28;20485;-62
2023/01/17 10:56:45;;;;;;;4.43;1.07;;;5.50;99.90;;;;;;5049877;28;20465;-62
2023/01/17 10:59:25;;;;;;;3.13;0.80;;;5.50;99.90;;;;;;5051281;28;20492;-63
2023/01/17 11:01:53;;;;;;;1.23;0.70;;;5.50;99.90;;;;;;5045420;28;20485;-61
2023/01/17 11:04:23;;;;;;;4.87;1.10;;;5.50;99.90;;;;;;5045765;28;21047;-62
2023/01/17 11:07:11;;;;;;;2.73;1.40;;;5.50;99.90;;;;;;5045095;28;20489;-62
2023/01/17 11:09:41;;;;;;;3.47;1.40;;;5.70;99.90;;;;;;5045098;28;20851;-62
2023/01/17 11:12:19;;;;;;;2.80;1.00;;;6.00;99.90;;;;;;5044978;28;20521;-62
2023/01/17 11:14:58;;;;;;;2.80;0.80;;;5.90;99.90;;;;;;5044083;28;20477;-63
2023/01/17 11:17:26;;;;;;;3.33;1.00;;;6.00;99.90;;;;;;5044299;28;21118;-62
2023/01/17 11:20:05;;;;;;;3.43;1.00;;;6.00;99.90;;;;;;5042570;28;20255;-62
2023/01/17 11:22:35;;;;;;;4.87;1.20;;;6.00;99.90;;;;;;5038703;28;20278;-62
2023/01/17 11:25:06;;;;;;;4.00;0.83;;;6.00;99.90;;;;;;5044023;28;20472;-61
2023/01/17 11:27:36;;;;;;;2.83;0.97;;;6.00;99.90;;;;;;5043773;28;20467;-62
2023/01/17 11:30:14;;;;;;;3.33;0.90;;;6.00;99.90;;;;;;5030887;28;20505;-62
2023/01/17 11:32:51;;;;;;;2.70;0.80;;;6.10;99.90;;;;;;5025378;28;20290;-62
2023/01/17 11:35:24;;;;;;;3.33;1.00;;;6.10;99.90;;;;;;5033753;28;20474;-62
2023/01/17 11:37:57;;;;;;;2.93;0.80;;;6.00;99.90;;;;;;5032446;28;20571;-62
2023/01/17 11:40:29;;;;;;;2.37;1.37;;;5.90;99.90;;;;;;5028320;28;20473;-62
2023/01/17 11:43:04;;;;;;;2.43;0.80;;;5.80;99.90;;;;;;5029685;28;20265;-62
2023/01/17 11:45:33;;;;;;;3.43;0.77;;;5.80;99.90;;;;;;5029263;28;20469;-62
2023/01/17 11:48:17;;;;;;;3.00;1.03;;;5.70;99.90;;;;;;5028361;28;20282;-63
2023/01/17 11:50:53;;;;;;;3.00;0.70;;;5.50;99.90;;;;;;5028120;28;20504;-63
2023/01/17 11:53:26;;;;;;;3.33;1.00;;;5.30;99.90;;;;;;5028823;28;20564;-63
2023/01/17 11:56:02;;;;;;;2.37;0.90;;;5.40;99.90;;;;;;5030267;28;20574;-62
2023/01/17 11:58:32;;;;;;;1.47;0.70;;;5.40;99.90;;;;;;5030552;28;20493;-62
2023/01/17 12:01:13;;;;;;;1.70;0.80;;;5.40;99.90;;;;;;5039369;28;20487;-62
2023/01/17 12:04:09;;;;;;;3.70;0.87;;;5.10;99.90;;;;;;5027537;28;20537;-63
2023/01/17 12:06:45;;;;;;;2.03;1.00;;;4.70;99.90;;;;;;5031701;28;20486;-63
2023/01/17 12:09:35;;;;;;;3.17;0.90;;;4.70;99.90;;;;;;5041861;28;20477;-63
2023/01/17 12:15:13;;;;;;;2.70;0.90;;;4.70;99.90;;;;;;5044038;28;21050;-63
2023/01/17 12:18:04;;;;;;;3.03;0.83;;;4.80;99.90;;;;;;5042588;28;20480;-62
2023/01/17 12:20:40;;;;;;;1.80;0.97;;;4.80;99.90;;;;;;5041315;28;20857;-62
2023/01/17 12:23:39;;;;;;;1.20;0.60;;;4.90;99.90;;;;;;5046463;28;20496;-62
2023/01/17 12:26:22;;;;;;;3.90;0.90;;;4.90;99.90;;;;;;5055033;28;20471;-62
2023/01/17 12:29:26;;;;;;;3.00;0.90;;;5.00;99.90;;;;;;5057995;28;20496;-63
2023/01/17 12:32:09;;;;;;;3.30;0.90;;;5.00;99.90;;;;;;5053554;28;20473;-62
2023/01/17 12:34:43;;;;;;;2.47;1.00;;;5.00;99.90;;;;;;5053361;28;20480;-62
2023/01/17 12:37:21;;;;;;;2.03;0.90;;;5.00;99.90;;;;;;5054477;28;20480;-63
2023/01/17 12:39:54;;;;;;;2.50;0.93;;;5.00;99.90;;;;;;5052038;28;20478;-63
2023/01/17 12:42:27;;;;;;;3.50;0.90;;;4.90;99.90;;;;;;5056471;28;20481;-62
2023/01/17 12:45:04;;;;;;;3.23;0.80;;;4.90;99.90;;;;;;5052373;28;20478;-63
2023/01/17 12:47:35;;;;;;;3.00;1.20;;;4.90;99.90;;;;;;5052825;28;20476;-62
2023/01/17 12:50:14;;;;;;;2.63;0.90;;;4.90;99.90;;;;;;5054685;28;20507;-62
2023/01/17 12:52:52;;;;;;;2.33;0.80;;;4.90;99.90;;;;;;5055376;28;20957;-62
2023/01/17 12:55:27;;;;;;;4.37;0.80;;;4.90;99.90;;;;;;5053307;28;20473;-63
2023/01/17 12:58:00;;;;;;;4.67;0.90;;;4.90;99.90;;;;;;5055666;28;21023;-62
2023/01/17 13:00:32;;;;;;;1.63;0.80;;;4.90;99.90;;;;;;5048057;28;20491;-62
2023/01/17 13:03:07;;;;;;;3.37;2.10;;;4.80;99.90;;;;;;5045966;28;20603;-62
2023/01/17 13:05:39;;;;;;;3.77;2.10;;;4.90;99.90;;;;;;5046592;28;20586;-63
2023/01/17 13:08:18;;;;;;;3.83;2.60;;;5.00;99.90;;;;;;5046587;28;20472;-62
2023/01/17 13:10:51;;;;;;;3.00;1.87;;;5.00;99.90;;;;;;5046295;28;20489;-63
2023/01/17 13:13:24;;;;;;;5.60;2.10;;;4.90;99.90;;;;;;5046993;28;20475;-62
2023/01/17 13:15:57;;;;;;;2.27;1.13;;;4.90;99.90;;;;;;5055589;28;20971;-62
2023/01/17 13:18:28;;;;;;;3.57;1.43;;;4.90;99.90;;;;;;5056118;28;21282;-61
2023/01/17 13:21:10;;;;;;;2.87;1.20;;;4.90;99.90;;;;;;5055583;28;20499;-62
2023/01/17 13:23:48;;;;;;;6.60;1.17;;;4.90;99.90;;;;;;5049334;28;20492;-62
2023/01/17 13:26:27;;;;;;;3.30;1.10;;;4.90;99.90;;;;;;5048800;28;20888;-62
2023/01/17 13:29:04;;;;;;;5.60;1.30;;;4.90;99.90;;;;;;5045822;28;20830;-63
2023/01/17 13:31:49;;;;;;;7.70;1.30;;;4.80;99.90;;;;;;5035905;28;20478;-61
2023/01/17 13:34:40;;;;;;;6.63;1.00;;;4.80;99.90;;;;;;5045572;28;20477;-62
2023/01/17 13:37:33;;;;;;;4.50;1.60;;;4.80;99.90;;;;;;5050446;28;21704;-63
2023/01/17 13:40:20;;;;;;;4.77;1.90;;;4.90;99.90;;;;;;5055980;28;20543;-62
2023/01/17 13:42:55;;;;;;;2.50;1.57;;;4.90;99.90;;;;;;5050872;28;20497;-61
2023/01/17 13:45:27;;;;;;;3.50;1.00;;;5.00;99.90;;;;;;5055993;28;20473;-61
2023/01/17 13:48:24;;;;;;;11.03;1.63;;;5.00;99.90;;;;;;5051892;28;20501;-62
2023/01/17 13:50:54;;;;;;;2.20;1.67;;;5.00;99.90;;;;;;5050826;28;20988;-61
2023/01/17 13:53:56;;;;;;;2.83;1.33;;;4.90;99.90;;;;;;5044883;28;20489;-62
2023/01/17 13:56:28;;;;;;;4.00;1.13;;;4.80;99.90;;;;;;5048663;28;20461;-62
2023/01/17 13:59:04;;;;;;;3.53;1.90;;;4.70;99.90;;;;;;5048790;28;20461;-61
2023/01/17 14:01:52;;;;;;;6.07;2.33;;;4.80;99.90;;;;;;5046276;28;20482;-62
2023/01/17 14:04:23;;;;;;;3.70;1.40;;;4.90;99.90;;;;;;5048971;28;20497;-61
2023/01/17 14:07:00;;;;;;;3.03;1.40;;;4.90;99.90;;;;;;5048626;28;20493;-62
2023/01/17 14:09:38;;;;;;;2.10;1.03;;;4.90;99.90;;;;;;5050038;28;20225;-62
2023/01/17 14:12:24;;;;;;;4.53;1.60;;;4.80;99.90;;;;;;5048569;28;20246;-62
2023/01/17 14:14:55;;;;;;;7.90;1.40;;;4.70;99.90;;;;;;5047732;28;20228;-63
2023/01/17 14:17:56;;;;;;;4.17;1.60;;;4.80;99.90;;;;;;5048309;28;20819;-62
2023/01/17 14:20:51;;;;;;;3.30;1.67;;;4.80;99.90;;;;;;5048375;28;20252;-62
2023/01/17 14:24:02;;;;;;;2.60;1.20;;;4.70;99.90;;;;;;5048484;28;20837;-62
2023/01/17 14:26:50;;;;;;;4.10;1.20;;;4.70;99.90;;;;;;5028480;28;20478;-63
2023/01/17 14:29:50;;;;;;;3.70;1.60;;;4.70;99.90;;;;;;5046200;28;20493;-61
2023/01/17 14:32:21;;;;;;;6.63;2.33;;;4.70;99.90;;;;;;5029251;28;20473;-61
2023/01/17 14:34:51;;;;;;;4.60;2.00;;;4.70;99.90;;;;;;5028082;28;21101;-61
2023/01/17 14:37:33;;;;;;;5.83;1.87;;;4.60;99.90;;;;;;5028208;28;21005;-61
2023/01/17 14:40:01;;;;;;;5.47;1.50;;;4.60;99.90;;;;;;5028748;28;20486;-63
2023/01/17 14:42:31;;;;;;;1.83;1.20;;;4.60;99.90;;;;;;5028867;28;20467;-61
2023/01/17 14:45:02;;;;;;;20.13;13.20;;;4.60;99.90;;;;;;5027560;28;20491;-61
2023/01/17 14:47:34;;;;;;;18.00;13.70;;;4.50;99.90;;;;;;5025860;28;20473;-62
2023/01/17 14:50:22;;;;;;;11.27;8.63;;;4.50;99.90;;;;;;5028470;28;20479;-62
2023/01/17 14:55:53;;;;;;;6.40;5.80;;;4.50;99.90;;;;;;5080730;28;20636;-62
2023/01/17 14:58:23;;;;;;;7.80;4.90;;;4.40;99.90;;;;;;5081375;28;20474;-64